Home   Weather   USA   Midland   Past weeks
Flag for USA

Past Weather in Midland, Texas, USA — Yesterday and Last 2 Weeks

Currently: 80 °F. Clear. (Weather station: Midland - Midland Airpark, USA). See more current weather

Past Weather in Midland — Graph

°F

Midland Temperature Yesterday

Maximum temperature yesterday: 85 °F (at 5:35 pm)
Minimum temperature yesterday: 57 °F (at 7:15 am)
Average temperature yesterday: 71 °F

High & Low Weather Summary for the Past Weeks

 TemperatureHumidityPressure
High94 °F (Apr 26, 5:15 pm)97% (May 1, 7:15 am)30.28 "Hg (May 1, 7:15 am)
Low50 °F (Apr 24, 6:55 am)6% (Apr 23, 3:55 pm)29.50 "Hg (May 2, 5:55 pm)
Average69 °F52%29.94 "Hg
* Reported Apr 22 8:15 pm — May 7 8:15 pm, Midland. Weather by CustomWeather, © 2021

Note: Actual official high and low records may vary slightly from our data, if they occured in-between our weather recording intervals... More about our weather records

Midland Weather History for the Previous 24 Hours

Scroll right to see more
 ConditionsComfort  
Time TempWeatherWind HumidityBarometerVisibility
8:15 pm
Fri, May 7
82 °FSunny.23 mph25%29.90 "Hg10 mi
7:55 pm83 °FSunny.21 mph23%29.89 "Hg10 mi
7:15 pm86 °FSunny.23 mph19%29.89 "Hg10 mi
6:55 pm86 °FSunny.20 mph18%29.88 "Hg10 mi
6:15 pm88 °FSunny.22 mph19%29.89 "Hg10 mi
5:55 pm88 °FSunny.20 mph19%29.91 "Hg10 mi
5:35 pm88 °FSunny.17 mph19%29.93 "Hg10 mi
5:15 pm88 °FSunny.18 mph20%29.94 "Hg10 mi
4:55 pm89 °FSunny.21 mph21%29.95 "Hg10 mi
4:35 pm88 °FSunny.22 mph22%29.97 "Hg10 mi
4:15 pm88 °FSunny.21 mph22%29.98 "Hg10 mi
3:55 pm87 °FSunny.23 mph24%30.00 "Hg10 mi
3:35 pm87 °FSunny.22 mph26%30.01 "Hg10 mi
2:55 pm85 °FSunny.23 mph30%30.04 "Hg10 mi
2:35 pm85 °FSunny.20 mph30%30.05 "Hg10 mi
2:15 pm85 °FSunny.22 mph33%30.06 "Hg10 mi
1:55 pm85 °FSunny.17 mph33%30.07 "Hg10 mi
1:35 pm84 °FSunny.22 mph37%30.08 "Hg10 mi
1:15 pm84 °FSunny.15 mph37%30.09 "Hg10 mi
12:55 pm83 °FSunny.21 mph38%30.10 "Hg10 mi
12:35 pm82 °FSunny.20 mph39%30.11 "Hg10 mi
12:15 pm81 °FSunny.16 mph40%30.12 "Hg10 mi
11:55 am79 °FSunny.17 mph44%30.12 "Hg10 mi
11:35 am78 °FSunny.17 mph46%30.12 "Hg10 mi
11:15 am77 °FSunny.18 mph49%30.13 "Hg10 mi
10:55 am76 °FSunny.21 mph49%30.13 "Hg10 mi
10:35 am75 °FSunny.18 mph50%30.13 "Hg10 mi
10:15 am73 °FSunny.18 mph52%30.14 "Hg10 mi
9:55 am71 °FSunny.17 mph52%30.15 "Hg10 mi
9:35 am69 °FSunny.14 mph52%30.15 "Hg10 mi
9:15 am67 °FSunny.10 mph53%30.15 "Hg10 mi
8:55 am65 °FSunny.9 mph57%30.15 "Hg10 mi
8:35 am64 °FSunny.7 mph60%30.15 "Hg10 mi
7:55 am62 °FSunny.6 mph64%30.16 "Hg10 mi
7:35 am61 °FSunny.5 mph64%30.16 "Hg10 mi
7:15 am61 °FSunny.6 mph63%30.15 "Hg10 mi
6:55 am62 °FClear.6 mph60%30.14 "Hg10 mi
6:35 am62 °FClear.6 mph59%30.14 "Hg10 mi
6:15 am63 °FClear.6 mph57%30.14 "Hg10 mi
5:55 am64 °FClear.7 mph54%30.13 "Hg10 mi
5:35 am64 °FClear.7 mph55%30.13 "Hg10 mi
4:55 am64 °FClear.7 mph52%30.14 "Hg10 mi
4:35 am65 °FClear.8 mph50%30.13 "Hg10 mi
3:55 am66 °FClear.7 mph48%30.14 "Hg10 mi
3:35 am66 °FClear.9 mph47%30.14 "Hg10 mi
3:15 am66 °FClear.7 mph46%30.14 "Hg10 mi
2:55 am67 °FClear.9 mph46%30.15 "Hg10 mi
2:35 am67 °FClear.9 mph44%30.16 "Hg10 mi
1:55 am68 °FClear.8 mph45%30.18 "Hg10 mi
1:35 am68 °FClear.10 mph45%30.18 "Hg10 mi
1:15 am68 °FClear.9 mph46%30.18 "Hg10 mi
12:55 am68 °FClear.6 mph47%30.18 "Hg10 mi
12:35 am69 °FClear.7 mph46%30.18 "Hg10 mi
12:15 am69 °FClear.7 mph44%30.18 "Hg10 mi
11:55 pm
Thu, May 6
70 °FClear.8 mph43%30.18 "Hg10 mi
11:15 pm72 °FClear.7 mph42%30.18 "Hg10 mi
10:55 pm73 °FClear.8 mph41%30.18 "Hg10 mi
10:15 pm74 °FClear.12 mph39%30.18 "Hg10 mi
9:55 pm75 °FClear.12 mph39%30.17 "Hg10 mi
9:35 pm76 °FClear.10 mph39%30.17 "Hg10 mi
9:15 pm77 °FClear.10 mph38%30.16 "Hg10 mi
Weather by CustomWeather, © 2021

See weather overview